sensor_id;sensor_type;location;lat;lon;timestamp;P1;durP1;ratioP1;P2;durP2;ratioP2
4508;SDS011;2267;48.816;9.230;2022-11-11T00:01:03;10.40;;;9.47;;
4508;SDS011;2267;48.816;9.230;2022-11-11T00:03:33;11.00;;;10.10;;
4508;SDS011;2267;48.816;9.230;2022-11-11T00:06:01;10.43;;;9.53;;
4508;SDS011;2267;48.816;9.230;2022-11-11T00:08:28;9.87;;;7.70;;
4508;SDS011;2267;48.816;9.230;2022-11-11T00:11:05;10.27;;;9.37;;
4508;SDS011;2267;48.816;9.230;2022-11-11T00:13:34;12.77;;;10.07;;
4508;SDS011;2267;48.816;9.230;2022-11-11T00:18:31;12.67;;;11.27;;
4508;SDS011;2267;48.816;9.230;2022-11-11T00:21:16;11.80;;;10.70;;
4508;SDS011;2267;48.816;9.230;2022-11-11T00:23:52;12.07;;;11.03;;
4508;SDS011;2267;48.816;9.230;2022-11-11T00:26:37;12.27;;;11.07;;
4508;SDS011;2267;48.816;9.230;2022-11-11T00:29:06;12.80;;;10.90;;
4508;SDS011;2267;48.816;9.230;2022-11-11T00:31:34;12.73;;;11.50;;
4508;SDS011;2267;48.816;9.230;2022-11-11T00:34:01;12.70;;;11.40;;
4508;SDS011;2267;48.816;9.230;2022-11-11T00:36:27;12.37;;;11.20;;
4508;SDS011;2267;48.816;9.230;2022-11-11T00:38:54;12.43;;;11.13;;
4508;SDS011;2267;48.816;9.230;2022-11-11T00:41:23;13.17;;;11.80;;
4508;SDS011;2267;48.816;9.230;2022-11-11T00:43:52;12.77;;;11.40;;
4508;SDS011;2267;48.816;9.230;2022-11-11T00:46:19;14.27;;;11.50;;
4508;SDS011;2267;48.816;9.230;2022-11-11T00:49:04;15.40;;;11.77;;
4508;SDS011;2267;48.816;9.230;2022-11-11T00:51:49;13.33;;;12.07;;
4508;SDS011;2267;48.816;9.230;2022-11-11T00:54:16;13.30;;;11.90;;
4508;SDS011;2267;48.816;9.230;2022-11-11T00:56:43;13.43;;;11.83;;
4508;SDS011;2267;48.816;9.230;2022-11-11T00:59:10;12.93;;;11.73;;
4508;SDS011;2267;48.816;9.230;2022-11-11T01:01:36;13.60;;;12.40;;
4508;SDS011;2267;48.816;9.230;2022-11-11T01:04:03;12.97;;;11.77;;
4508;SDS011;2267;48.816;9.230;2022-11-11T01:06:31;13.67;;;12.07;;
4508;SDS011;2267;48.816;9.230;2022-11-11T01:09:03;13.97;;;11.80;;
4508;SDS011;2267;48.816;9.230;2022-11-11T01:11:31;12.70;;;11.40;;
4508;SDS011;2267;48.816;9.230;2022-11-11T01:13:58;12.60;;;11.50;;
4508;SDS011;2267;48.816;9.230;2022-11-11T01:16:25;12.40;;;11.30;;
4508;SDS011;2267;48.816;9.230;2022-11-11T01:18:53;13.63;;;12.27;;
4508;SDS011;2267;48.816;9.230;2022-11-11T01:21:21;14.67;;;13.07;;
4508;SDS011;2267;48.816;9.230;2022-11-11T01:23:50;12.73;;;11.60;;
4508;SDS011;2267;48.816;9.230;2022-11-11T01:28:56;11.57;;;10.67;;
4508;SDS011;2267;48.816;9.230;2022-11-11T01:31:23;13.07;;;11.87;;
4508;SDS011;2267;48.816;9.230;2022-11-11T01:33:51;12.63;;;11.47;;
4508;SDS011;2267;48.816;9.230;2022-11-11T01:36:18;13.47;;;12.10;;
4508;SDS011;2267;48.816;9.230;2022-11-11T01:38:49;12.80;;;11.50;;
4508;SDS011;2267;48.816;9.230;2022-11-11T01:41:19;13.70;;;10.67;;
4508;SDS011;2267;48.816;9.230;2022-11-11T01:44:00;12.30;;;11.27;;
4508;SDS011;2267;48.816;9.230;2022-11-11T01:46:31;11.80;;;10.57;;
4508;SDS011;2267;48.816;9.230;2022-11-11T01:49:48;12.03;;;11.00;;
4508;SDS011;2267;48.816;9.230;2022-11-11T01:54:35;12.33;;;11.00;;
4508;SDS011;2267;48.816;9.230;2022-11-11T01:59:52;12.13;;;11.10;;
4508;SDS011;2267;48.816;9.230;2022-11-11T02:02:39;11.60;;;10.60;;
4508;SDS011;2267;48.816;9.230;2022-11-11T02:05:14;11.80;;;10.70;;
4508;SDS011;2267;48.816;9.230;2022-11-11T02:08:03;11.10;;;10.13;;
4508;SDS011;2267;48.816;9.230;2022-11-11T02:10:33;11.37;;;10.37;;
4508;SDS011;2267;48.816;9.230;2022-11-11T02:13:00;10.83;;;9.80;;
4508;SDS011;2267;48.816;9.230;2022-11-11T02:15:46;10.93;;;9.93;;
4508;SDS011;2267;48.816;9.230;2022-11-11T02:18:13;10.23;;;9.33;;
4508;SDS011;2267;48.816;9.230;2022-11-11T02:20:41;9.80;;;9.00;;
4508;SDS011;2267;48.816;9.230;2022-11-11T02:26:02;9.97;;;9.10;;
4508;SDS011;2267;48.816;9.230;2022-11-11T02:28:32;10.00;;;9.00;;
4508;SDS011;2267;48.816;9.230;2022-11-11T02:30:59;12.10;;;9.37;;
4508;SDS011;2267;48.816;9.230;2022-11-11T02:33:25;10.20;;;9.30;;
4508;SDS011;2267;48.816;9.230;2022-11-11T02:35:54;9.33;;;8.50;;
4508;SDS011;2267;48.816;9.230;2022-11-11T02:38:24;10.27;;;9.37;;
4508;SDS011;2267;48.816;9.230;2022-11-11T02:40:51;9.97;;;9.17;;
4508;SDS011;2267;48.816;9.230;2022-11-11T02:43:37;11.07;;;10.03;;
4508;SDS011;2267;48.816;9.230;2022-11-11T02:46:04;10.73;;;9.73;;
4508;SDS011;2267;48.816;9.230;2022-11-11T02:48:32;9.97;;;9.17;;
4508;SDS011;2267;48.816;9.230;2022-11-11T02:50:59;10.77;;;9.97;;
4508;SDS011;2267;48.816;9.230;2022-11-11T02:53:26;10.50;;;9.60;;
4508;SDS011;2267;48.816;9.230;2022-11-11T02:55:54;11.27;;;10.10;;
4508;SDS011;2267;48.816;9.230;2022-11-11T02:58:21;9.47;;;8.67;;
4508;SDS011;2267;48.816;9.230;2022-11-11T03:00:48;13.53;;;10.10;;
4508;SDS011;2267;48.816;9.230;2022-11-11T03:03:14;10.23;;;9.33;;
4508;SDS011;2267;48.816;9.230;2022-11-11T03:05:41;12.50;;;11.33;;
4508;SDS011;2267;48.816;9.230;2022-11-11T03:08:08;12.90;;;11.70;;
4508;SDS011;2267;48.816;9.230;2022-11-11T03:10:35;14.70;;;11.37;;
4508;SDS011;2267;48.816;9.230;2022-11-11T03:13:03;13.30;;;11.87;;
4508;SDS011;2267;48.816;9.230;2022-11-11T03:15:29;11.27;;;10.27;;
4508;SDS011;2267;48.816;9.230;2022-11-11T03:17:56;14.73;;;13.10;;
4508;SDS011;2267;48.816;9.230;2022-11-11T03:20:23;16.27;;;14.90;;
4508;SDS011;2267;48.816;9.230;2022-11-11T03:23:12;13.83;;;12.60;;
4508;SDS011;2267;48.816;9.230;2022-11-11T03:25:49;14.50;;;13.27;;
4508;SDS011;2267;48.816;9.230;2022-11-11T03:28:23;16.87;;;15.47;;
4508;SDS011;2267;48.816;9.230;2022-11-11T03:30:52;15.53;;;14.00;;
4508;SDS011;2267;48.816;9.230;2022-11-11T03:33:19;15.43;;;14.00;;
4508;SDS011;2267;48.816;9.230;2022-11-11T03:35:46;15.67;;;13.97;;
4508;SDS011;2267;48.816;9.230;2022-11-11T03:38:13;15.00;;;13.80;;
4508;SDS011;2267;48.816;9.230;2022-11-11T03:40:53;15.83;;;14.37;;
4508;SDS011;2267;48.816;9.230;2022-11-11T03:43:23;13.70;;;12.30;;
4508;SDS011;2267;48.816;9.230;2022-11-11T03:45:53;14.07;;;12.97;;
4508;SDS011;2267;48.816;9.230;2022-11-11T03:48:24;14.50;;;13.20;;
4508;SDS011;2267;48.816;9.230;2022-11-11T03:50:52;12.77;;;11.77;;
4508;SDS011;2267;48.816;9.230;2022-11-11T03:53:19;13.83;;;12.70;;
4508;SDS011;2267;48.816;9.230;2022-11-11T03:55:47;14.90;;;13.67;;
4508;SDS011;2267;48.816;9.230;2022-11-11T03:58:15;13.33;;;12.13;;
4508;SDS011;2267;48.816;9.230;2022-11-11T04:00:42;13.00;;;11.80;;
4508;SDS011;2267;48.816;9.230;2022-11-11T04:03:14;12.27;;;11.17;;
4508;SDS011;2267;48.816;9.230;2022-11-11T04:06:01;11.60;;;10.50;;
4508;SDS011;2267;48.816;9.230;2022-11-11T04:08:28;12.47;;;11.37;;
4508;SDS011;2267;48.816;9.230;2022-11-11T04:11:16;12.07;;;10.97;;
4508;SDS011;2267;48.816;9.230;2022-11-11T04:13:49;11.07;;;10.07;;
4508;SDS011;2267;48.816;9.230;2022-11-11T04:16:35;11.70;;;10.60;;
4508;SDS011;2267;48.816;9.230;2022-11-11T04:19:02;11.07;;;9.97;;
4508;SDS011;2267;48.816;9.230;2022-11-11T04:21:48;9.97;;;9.00;;
4508;SDS011;2267;48.816;9.230;2022-11-11T04:24:16;10.10;;;9.30;;
4508;SDS011;2267;48.816;9.230;2022-11-11T04:27:03;11.30;;;9.07;;
4508;SDS011;2267;48.816;9.230;2022-11-11T04:29:34;11.77;;;10.67;;
4508;SDS011;2267;48.816;9.230;2022-11-11T04:32:04;11.00;;;10.00;;
4508;SDS011;2267;48.816;9.230;2022-11-11T04:35:00;10.30;;;9.40;;
4508;SDS011;2267;48.816;9.230;2022-11-11T04:37:30;9.03;;;8.23;;
4508;SDS011;2267;48.816;9.230;2022-11-11T04:39:58;10.23;;;9.33;;
4508;SDS011;2267;48.816;9.230;2022-11-11T04:43:00;8.00;;;7.30;;
4508;SDS011;2267;48.816;9.230;2022-11-11T04:45:27;9.40;;;8.60;;
4508;SDS011;2267;48.816;9.230;2022-11-11T04:47:54;8.30;;;7.50;;
4508;SDS011;2267;48.816;9.230;2022-11-11T04:50:27;10.23;;;9.23;;
4508;SDS011;2267;48.816;9.230;2022-11-11T04:52:58;9.80;;;8.90;;
4508;SDS011;2267;48.816;9.230;2022-11-11T04:55:26;8.33;;;7.60;;
4508;SDS011;2267;48.816;9.230;2022-11-11T04:58:11;9.90;;;9.13;;
4508;SDS011;2267;48.816;9.230;2022-11-11T05:00:38;9.30;;;8.60;;
4508;SDS011;2267;48.816;9.230;2022-11-11T05:03:05;9.53;;;8.63;;
4508;SDS011;2267;48.816;9.230;2022-11-11T05:05:51;8.53;;;7.93;;
4508;SDS011;2267;48.816;9.230;2022-11-11T05:08:37;9.40;;;8.60;;
4508;SDS011;2267;48.816;9.230;2022-11-11T05:11:22;9.80;;;9.00;;
4508;SDS011;2267;48.816;9.230;2022-11-11T05:13:50;9.87;;;9.07;;
4508;SDS011;2267;48.816;9.230;2022-11-11T05:16:43;10.67;;;9.70;;
4508;SDS011;2267;48.816;9.230;2022-11-11T05:19:29;9.40;;;8.67;;
4508;SDS011;2267;48.816;9.230;2022-11-11T05:22:15;9.63;;;8.77;;
4508;SDS011;2267;48.816;9.230;2022-11-11T05:24:44;8.80;;;7.90;;
4508;SDS011;2267;48.816;9.230;2022-11-11T05:27:29;10.00;;;9.10;;
4508;SDS011;2267;48.816;9.230;2022-11-11T05:29:56;8.30;;;7.60;;
4508;SDS011;2267;48.816;9.230;2022-11-11T05:32:23;11.00;;;10.10;;
4508;SDS011;2267;48.816;9.230;2022-11-11T05:34:51;10.17;;;9.43;;
4508;SDS011;2267;48.816;9.230;2022-11-11T05:37:18;8.60;;;7.90;;
4508;SDS011;2267;48.816;9.230;2022-11-11T05:39:45;9.03;;;8.33;;
4508;SDS011;2267;48.816;9.230;2022-11-11T05:42:12;9.40;;;8.60;;
4508;SDS011;2267;48.816;9.230;2022-11-11T05:44:39;11.60;;;9.90;;
4508;SDS011;2267;48.816;9.230;2022-11-11T05:47:06;9.47;;;8.67;;
4508;SDS011;2267;48.816;9.230;2022-11-11T05:49:33;10.60;;;9.60;;
4508;SDS011;2267;48.816;9.230;2022-11-11T05:52:00;9.20;;;8.30;;
4508;SDS011;2267;48.816;9.230;2022-11-11T05:54:28;9.37;;;8.53;;
4508;SDS011;2267;48.816;9.230;2022-11-11T05:56:54;9.00;;;8.20;;
4508;SDS011;2267;48.816;9.230;2022-11-11T05:59:21;9.57;;;8.57;;
4508;SDS011;2267;48.816;9.230;2022-11-11T06:01:48;9.43;;;8.60;;
4508;SDS011;2267;48.816;9.230;2022-11-11T06:04:15;9.23;;;8.43;;
4508;SDS011;2267;48.816;9.230;2022-11-11T06:06:43;9.60;;;8.70;;
4508;SDS011;2267;48.816;9.230;2022-11-11T06:09:10;8.47;;;7.67;;
4508;SDS011;2267;48.816;9.230;2022-11-11T06:11:37;9.90;;;8.37;;
4508;SDS011;2267;48.816;9.230;2022-11-11T06:14:04;9.30;;;8.17;;
4508;SDS011;2267;48.816;9.230;2022-11-11T06:16:31;10.17;;;9.23;;
4508;SDS011;2267;48.816;9.230;2022-11-11T06:18:58;8.73;;;8.03;;
4508;SDS011;2267;48.816;9.230;2022-11-11T06:21:25;10.30;;;9.43;;
4508;SDS011;2267;48.816;9.230;2022-11-11T06:23:52;11.30;;;10.30;;
4508;SDS011;2267;48.816;9.230;2022-11-11T06:26:19;12.97;;;11.00;;
4508;SDS011;2267;48.816;9.230;2022-11-11T06:28:47;10.27;;;9.27;;
4508;SDS011;2267;48.816;9.230;2022-11-11T06:31:19;10.67;;;9.57;;
4508;SDS011;2267;48.816;9.230;2022-11-11T06:33:47;11.13;;;10.10;;
4508;SDS011;2267;48.816;9.230;2022-11-11T06:36:15;11.43;;;10.27;;
4508;SDS011;2267;48.816;9.230;2022-11-11T06:38:43;11.30;;;9.87;;
4508;SDS011;2267;48.816;9.230;2022-11-11T06:41:11;11.70;;;10.60;;
4508;SDS011;2267;48.816;9.230;2022-11-11T06:43:38;12.10;;;11.03;;
4508;SDS011;2267;48.816;9.230;2022-11-11T06:46:05;10.87;;;9.97;;
4508;SDS011;2267;48.816;9.230;2022-11-11T06:48:33;11.17;;;10.17;;
4508;SDS011;2267;48.816;9.230;2022-11-11T06:51:00;11.70;;;9.63;;
4508;SDS011;2267;48.816;9.230;2022-11-11T06:53:29;10.80;;;9.80;;
4508;SDS011;2267;48.816;9.230;2022-11-11T06:55:56;10.00;;;9.00;;
4508;SDS011;2267;48.816;9.230;2022-11-11T06:58:23;10.00;;;9.20;;
4508;SDS011;2267;48.816;9.230;2022-11-11T07:00:51;10.57;;;9.60;;
4508;SDS011;2267;48.816;9.230;2022-11-11T07:03:18;10.40;;;9.33;;
4508;SDS011;2267;48.816;9.230;2022-11-11T07:05:51;12.53;;;9.50;;
4508;SDS011;2267;48.816;9.230;2022-11-11T07:08:24;10.00;;;9.00;;
4508;SDS011;2267;48.816;9.230;2022-11-11T07:10:52;12.30;;;9.60;;
4508;SDS011;2267;48.816;9.230;2022-11-11T07:13:18;10.30;;;9.40;;
4508;SDS011;2267;48.816;9.230;2022-11-11T07:15:45;10.20;;;9.20;;
4508;SDS011;2267;48.816;9.230;2022-11-11T07:18:12;10.13;;;9.17;;
4508;SDS011;2267;48.816;9.230;2022-11-11T07:20:40;10.77;;;9.17;;
4508;SDS011;2267;48.816;9.230;2022-11-11T07:23:07;9.27;;;8.47;;
4508;SDS011;2267;48.816;9.230;2022-11-11T07:25:34;10.60;;;9.47;;
4508;SDS011;2267;48.816;9.230;2022-11-11T07:28:00;10.07;;;9.17;;
4508;SDS011;2267;48.816;9.230;2022-11-11T07:30:27;10.03;;;9.13;;
4508;SDS011;2267;48.816;9.230;2022-11-11T07:32:54;10.57;;;9.57;;
4508;SDS011;2267;48.816;9.230;2022-11-11T07:35:21;10.43;;;9.43;;
4508;SDS011;2267;48.816;9.230;2022-11-11T07:37:48;9.40;;;8.40;;
4508;SDS011;2267;48.816;9.230;2022-11-11T07:40:15;8.13;;;7.43;;
4508;SDS011;2267;48.816;9.230;2022-11-11T07:42:43;9.50;;;8.70;;
4508;SDS011;2267;48.816;9.230;2022-11-11T07:45:11;9.30;;;8.40;;
4508;SDS011;2267;48.816;9.230;2022-11-11T07:47:38;9.77;;;8.97;;
4508;SDS011;2267;48.816;9.230;2022-11-11T07:50:07;11.83;;;7.90;;
4508;SDS011;2267;48.816;9.230;2022-11-11T07:52:35;8.13;;;7.47;;
4508;SDS011;2267;48.816;9.230;2022-11-11T07:55:03;7.30;;;6.70;;
4508;SDS011;2267;48.816;9.230;2022-11-11T07:57:30;8.23;;;7.53;;
4508;SDS011;2267;48.816;9.230;2022-11-11T07:59:57;8.70;;;7.87;;
4508;SDS011;2267;48.816;9.230;2022-11-11T08:02:24;8.33;;;7.30;;
4508;SDS011;2267;48.816;9.230;2022-11-11T08:04:51;8.73;;;7.87;;
4508;SDS011;2267;48.816;9.230;2022-11-11T08:07:21;9.97;;;6.97;;
4508;SDS011;2267;48.816;9.230;2022-11-11T08:09:49;7.27;;;6.73;;
4508;SDS011;2267;48.816;9.230;2022-11-11T08:12:17;8.50;;;7.80;;
4508;SDS011;2267;48.816;9.230;2022-11-11T08:15:03;7.67;;;7.17;;
4508;SDS011;2267;48.816;9.230;2022-11-11T08:17:36;8.70;;;8.00;;
4508;SDS011;2267;48.816;9.230;2022-11-11T08:20:05;9.37;;;8.63;;
4508;SDS011;2267;48.816;9.230;2022-11-11T08:22:40;8.17;;;7.47;;
4508;SDS011;2267;48.816;9.230;2022-11-11T08:25:27;8.23;;;7.60;;
4508;SDS011;2267;48.816;9.230;2022-11-11T08:28:02;8.90;;;8.00;;
4508;SDS011;2267;48.816;9.230;2022-11-11T08:30:30;8.73;;;8.03;;
4508;SDS011;2267;48.816;9.230;2022-11-11T08:33:01;8.87;;;7.97;;
4508;SDS011;2267;48.816;9.230;2022-11-11T08:35:50;8.27;;;7.60;;
4508;SDS011;2267;48.816;9.230;2022-11-11T08:38:20;9.00;;;8.10;;
4508;SDS011;2267;48.816;9.230;2022-11-11T08:40:49;7.60;;;7.00;;
4508;SDS011;2267;48.816;9.230;2022-11-11T08:43:16;8.17;;;7.47;;
4508;SDS011;2267;48.816;9.230;2022-11-11T08:45:43;7.73;;;7.13;;
4508;SDS011;2267;48.816;9.230;2022-11-11T08:48:10;8.30;;;7.50;;
4508;SDS011;2267;48.816;9.230;2022-11-11T08:50:37;7.40;;;6.70;;
4508;SDS011;2267;48.816;9.230;2022-11-11T08:53:06;8.47;;;7.67;;
4508;SDS011;2267;48.816;9.230;2022-11-11T08:55:34;7.53;;;6.87;;
4508;SDS011;2267;48.816;9.230;2022-11-11T08:58:04;8.03;;;7.37;;
4508;SDS011;2267;48.816;9.230;2022-11-11T09:00:32;7.67;;;6.90;;
4508;SDS011;2267;48.816;9.230;2022-11-11T09:03:00;6.70;;;6.10;;
4508;SDS011;2267;48.816;9.230;2022-11-11T09:05:31;7.97;;;7.37;;
4508;SDS011;2267;48.816;9.230;2022-11-11T09:08:01;6.83;;;6.13;;
4508;SDS011;2267;48.816;9.230;2022-11-11T09:10:32;8.10;;;7.30;;
4508;SDS011;2267;48.816;9.230;2022-11-11T09:13:00;7.23;;;6.73;;
4508;SDS011;2267;48.816;9.230;2022-11-11T09:15:27;6.90;;;6.40;;
4508;SDS011;2267;48.816;9.230;2022-11-11T09:17:55;6.77;;;6.17;;
4508;SDS011;2267;48.816;9.230;2022-11-11T09:20:22;6.80;;;6.30;;
4508;SDS011;2267;48.816;9.230;2022-11-11T09:22:50;6.83;;;6.23;;
4508;SDS011;2267;48.816;9.230;2022-11-11T09:25:20;6.83;;;6.23;;
4508;SDS011;2267;48.816;9.230;2022-11-11T09:27:55;7.67;;;7.00;;
4508;SDS011;2267;48.816;9.230;2022-11-11T09:30:24;9.13;;;8.13;;
4508;SDS011;2267;48.816;9.230;2022-11-11T09:32:51;10.40;;;6.83;;
4508;SDS011;2267;48.816;9.230;2022-11-11T09:35:18;7.40;;;6.90;;
4508;SDS011;2267;48.816;9.230;2022-11-11T09:37:55;7.00;;;6.40;;
4508;SDS011;2267;48.816;9.230;2022-11-11T09:40:24;7.93;;;6.80;;
4508;SDS011;2267;48.816;9.230;2022-11-11T09:42:59;7.20;;;6.50;;
4508;SDS011;2267;48.816;9.230;2022-11-11T09:45:37;8.30;;;7.50;;
4508;SDS011;2267;48.816;9.230;2022-11-11T09:48:25;9.20;;;8.30;;
4508;SDS011;2267;48.816;9.230;2022-11-11T09:51:14;11.67;;;7.87;;
4508;SDS011;2267;48.816;9.230;2022-11-11T09:53:47;7.63;;;6.83;;
4508;SDS011;2267;48.816;9.230;2022-11-11T09:56:19;7.70;;;7.10;;
4508;SDS011;2267;48.816;9.230;2022-11-11T10:01:41;7.20;;;6.60;;
4508;SDS011;2267;48.816;9.230;2022-11-11T10:06:51;7.53;;;6.73;;
4508;SDS011;2267;48.816;9.230;2022-11-11T10:09:41;7.00;;;6.30;;
4508;SDS011;2267;48.816;9.230;2022-11-11T10:12:14;7.03;;;6.43;;
4508;SDS011;2267;48.816;9.230;2022-11-11T10:14:43;7.30;;;6.43;;
4508;SDS011;2267;48.816;9.230;2022-11-11T10:20:19;7.43;;;6.73;;
4508;SDS011;2267;48.816;9.230;2022-11-11T10:25:31;8.90;;;8.10;;
4508;SDS011;2267;48.816;9.230;2022-11-11T10:27:59;8.37;;;7.67;;
4508;SDS011;2267;48.816;9.230;2022-11-11T10:30:29;8.20;;;7.43;;
4508;SDS011;2267;48.816;9.230;2022-11-11T10:35:29;8.70;;;7.90;;
4508;SDS011;2267;48.816;9.230;2022-11-11T10:40:28;7.83;;;7.13;;
4508;SDS011;2267;48.816;9.230;2022-11-11T10:43:17;7.10;;;6.40;;
4508;SDS011;2267;48.816;9.230;2022-11-11T10:51:46;8.50;;;7.30;;
4508;SDS011;2267;48.816;9.230;2022-11-11T10:54:30;7.53;;;6.70;;
4508;SDS011;2267;48.816;9.230;2022-11-11T11:00:04;8.53;;;7.00;;
4508;SDS011;2267;48.816;9.230;2022-11-11T11:05:19;7.17;;;6.57;;
4508;SDS011;2267;48.816;9.230;2022-11-11T11:07:52;8.63;;;7.40;;
4508;SDS011;2267;48.816;9.230;2022-11-11T11:10:31;8.23;;;7.43;;
4508;SDS011;2267;48.816;9.230;2022-11-11T11:13:20;7.40;;;6.80;;
4508;SDS011;2267;48.816;9.230;2022-11-11T11:16:12;7.10;;;6.50;;
4508;SDS011;2267;48.816;9.230;2022-11-11T11:18:42;6.97;;;6.37;;
4508;SDS011;2267;48.816;9.230;2022-11-11T11:21:09;7.70;;;7.00;;
4508;SDS011;2267;48.816;9.230;2022-11-11T11:23:41;7.60;;;6.90;;
4508;SDS011;2267;48.816;9.230;2022-11-11T11:26:09;8.27;;;7.57;;
4508;SDS011;2267;48.816;9.230;2022-11-11T11:28:57;7.20;;;6.50;;
4508;SDS011;2267;48.816;9.230;2022-11-11T11:31:36;7.10;;;6.43;;
4508;SDS011;2267;48.816;9.230;2022-11-11T11:34:04;6.57;;;5.97;;
4508;SDS011;2267;48.816;9.230;2022-11-11T11:36:31;7.13;;;6.53;;
4508;SDS011;2267;48.816;9.230;2022-11-11T11:38:58;6.60;;;5.80;;
4508;SDS011;2267;48.816;9.230;2022-11-11T11:44:26;7.10;;;6.50;;
4508;SDS011;2267;48.816;9.230;2022-11-11T11:47:01;8.07;;;6.67;;
4508;SDS011;2267;48.816;9.230;2022-11-11T11:52:22;7.67;;;6.93;;
4508;SDS011;2267;48.816;9.230;2022-11-11T12:00:27;7.60;;;6.90;;
4508;SDS011;2267;48.816;9.230;2022-11-11T12:05:37;7.23;;;6.63;;
4508;SDS011;2267;48.816;9.230;2022-11-11T12:08:26;6.40;;;5.80;;
4508;SDS011;2267;48.816;9.230;2022-11-11T12:14:32;8.20;;;5.67;;
4508;SDS011;2267;48.816;9.230;2022-11-11T12:17:35;6.60;;;6.00;;
4508;SDS011;2267;48.816;9.230;2022-11-11T12:25:55;8.63;;;5.67;;
4508;SDS011;2267;48.816;9.230;2022-11-11T12:42:45;4.43;;;3.70;;
4508;SDS011;2267;48.816;9.230;2022-11-11T12:50:32;3.60;;;3.30;;
4508;SDS011;2267;48.816;9.230;2022-11-11T13:01:09;7.37;;;3.73;;
4508;SDS011;2267;48.816;9.230;2022-11-11T13:17:29;4.80;;;3.70;;
4508;SDS011;2267;48.816;9.230;2022-11-11T13:23:00;3.80;;;3.40;;
4508;SDS011;2267;48.816;9.230;2022-11-11T13:25:28;3.90;;;3.17;;
4508;SDS011;2267;48.816;9.230;2022-11-11T13:28:02;3.63;;;3.23;;
4508;SDS011;2267;48.816;9.230;2022-11-11T13:33:41;6.23;;;4.00;;
4508;SDS011;2267;48.816;9.230;2022-11-11T13:36:13;5.90;;;4.30;;
4508;SDS011;2267;48.816;9.230;2022-11-11T13:41:26;4.17;;;3.40;;
4508;SDS011;2267;48.816;9.230;2022-11-11T13:44:00;3.87;;;3.53;;
4508;SDS011;2267;48.816;9.230;2022-11-11T13:46:37;5.10;;;3.77;;
4508;SDS011;2267;48.816;9.230;2022-11-11T13:49:06;3.70;;;3.27;;
4508;SDS011;2267;48.816;9.230;2022-11-11T13:51:37;3.80;;;3.20;;
4508;SDS011;2267;48.816;9.230;2022-11-11T13:54:05;4.33;;;3.00;;
4508;SDS011;2267;48.816;9.230;2022-11-11T13:56:59;3.50;;;3.20;;
4508;SDS011;2267;48.816;9.230;2022-11-11T13:59:40;3.50;;;3.20;;
4508;SDS011;2267;48.816;9.230;2022-11-11T14:20:56;5.90;;;5.00;;
4508;SDS011;2267;48.816;9.230;2022-11-11T14:23:33;5.33;;;4.80;;
4508;SDS011;2267;48.816;9.230;2022-11-11T14:33:53;7.23;;;6.53;;
4508;SDS011;2267;48.816;9.230;2022-11-11T14:42:03;7.57;;;4.60;;
4508;SDS011;2267;48.816;9.230;2022-11-11T14:49:49;4.20;;;3.80;;
4508;SDS011;2267;48.816;9.230;2022-11-11T14:52:33;4.83;;;4.20;;
4508;SDS011;2267;48.816;9.230;2022-11-11T14:55:18;4.73;;;3.07;;
4508;SDS011;2267;48.816;9.230;2022-11-11T14:57:54;4.07;;;3.50;;
4508;SDS011;2267;48.816;9.230;2022-11-11T15:03:36;4.27;;;3.87;;
4508;SDS011;2267;48.816;9.230;2022-11-11T15:22:49;4.77;;;4.27;;
4508;SDS011;2267;48.816;9.230;2022-11-11T15:39:05;6.40;;;4.77;;
4508;SDS011;2267;48.816;9.230;2022-11-11T15:41:39;8.40;;;5.33;;
4508;SDS011;2267;48.816;9.230;2022-11-11T15:44:09;5.20;;;4.70;;
4508;SDS011;2267;48.816;9.230;2022-11-11T15:46:56;6.10;;;5.50;;
4508;SDS011;2267;48.816;9.230;2022-11-11T15:52:19;6.03;;;4.53;;
4508;SDS011;2267;48.816;9.230;2022-11-11T15:55:00;8.60;;;5.40;;
4508;SDS011;2267;48.816;9.230;2022-11-11T15:57:35;7.70;;;5.40;;
4508;SDS011;2267;48.816;9.230;2022-11-11T16:00:23;8.10;;;6.83;;
4508;SDS011;2267;48.816;9.230;2022-11-11T16:02:50;6.50;;;5.10;;
4508;SDS011;2267;48.816;9.230;2022-11-11T16:05:20;9.53;;;5.40;;
4508;SDS011;2267;48.816;9.230;2022-11-11T16:07:49;8.23;;;5.70;;
4508;SDS011;2267;48.816;9.230;2022-11-11T16:12:51;6.50;;;5.80;;
4508;SDS011;2267;48.816;9.230;2022-11-11T16:15:25;8.10;;;5.37;;
4508;SDS011;2267;48.816;9.230;2022-11-11T16:18:00;8.43;;;6.90;;
4508;SDS011;2267;48.816;9.230;2022-11-11T16:20:37;7.57;;;6.20;;
4508;SDS011;2267;48.816;9.230;2022-11-11T16:23:11;11.00;;;6.07;;
4508;SDS011;2267;48.816;9.230;2022-11-11T16:25:41;10.90;;;6.87;;
4508;SDS011;2267;48.816;9.230;2022-11-11T16:28:09;9.00;;;6.77;;
4508;SDS011;2267;48.816;9.230;2022-11-11T16:30:38;9.47;;;7.70;;
4508;SDS011;2267;48.816;9.230;2022-11-11T16:33:04;7.23;;;6.50;;
4508;SDS011;2267;48.816;9.230;2022-11-11T16:36:08;8.77;;;7.43;;
4508;SDS011;2267;48.816;9.230;2022-11-11T16:38:36;13.20;;;7.23;;
4508;SDS011;2267;48.816;9.230;2022-11-11T16:41:25;8.23;;;7.40;;
4508;SDS011;2267;48.816;9.230;2022-11-11T16:43:54;9.10;;;6.53;;
4508;SDS011;2267;48.816;9.230;2022-11-11T16:46:41;6.90;;;6.30;;
4508;SDS011;2267;48.816;9.230;2022-11-11T16:51:50;7.30;;;6.30;;
4508;SDS011;2267;48.816;9.230;2022-11-11T16:54:18;8.03;;;6.73;;
4508;SDS011;2267;48.816;9.230;2022-11-11T16:56:53;7.70;;;7.00;;
4508;SDS011;2267;48.816;9.230;2022-11-11T16:59:45;9.37;;;8.10;;
4508;SDS011;2267;48.816;9.230;2022-11-11T17:02:17;10.73;;;8.90;;
4508;SDS011;2267;48.816;9.230;2022-11-11T17:04:54;11.53;;;8.60;;
4508;SDS011;2267;48.816;9.230;2022-11-11T17:12:43;10.00;;;9.00;;
4508;SDS011;2267;48.816;9.230;2022-11-11T17:15:14;8.60;;;7.23;;
4508;SDS011;2267;48.816;9.230;2022-11-11T17:17:43;10.17;;;8.10;;
4508;SDS011;2267;48.816;9.230;2022-11-11T17:20:14;9.30;;;8.33;;
4508;SDS011;2267;48.816;9.230;2022-11-11T17:25:17;9.20;;;8.40;;
4508;SDS011;2267;48.816;9.230;2022-11-11T17:27:44;12.63;;;9.07;;
4508;SDS011;2267;48.816;9.230;2022-11-11T17:30:11;10.13;;;9.13;;
4508;SDS011;2267;48.816;9.230;2022-11-11T17:32:39;10.67;;;9.67;;
4508;SDS011;2267;48.816;9.230;2022-11-11T17:35:06;12.33;;;9.83;;
4508;SDS011;2267;48.816;9.230;2022-11-11T17:37:37;10.97;;;9.03;;
4508;SDS011;2267;48.816;9.230;2022-11-11T17:40:05;11.33;;;9.70;;
4508;SDS011;2267;48.816;9.230;2022-11-11T17:42:33;11.60;;;9.83;;
4508;SDS011;2267;48.816;9.230;2022-11-11T17:45:00;15.30;;;10.30;;
4508;SDS011;2267;48.816;9.230;2022-11-11T17:47:28;12.40;;;9.80;;
4508;SDS011;2267;48.816;9.230;2022-11-11T17:49:56;12.03;;;10.93;;
4508;SDS011;2267;48.816;9.230;2022-11-11T17:52:23;12.67;;;9.93;;
4508;SDS011;2267;48.816;9.230;2022-11-11T17:54:50;12.23;;;10.97;;
4508;SDS011;2267;48.816;9.230;2022-11-11T17:57:17;12.57;;;11.37;;
4508;SDS011;2267;48.816;9.230;2022-11-11T17:59:44;13.20;;;10.83;;
4508;SDS011;2267;48.816;9.230;2022-11-11T18:02:11;11.93;;;10.50;;
4508;SDS011;2267;48.816;9.230;2022-11-11T18:04:39;12.30;;;11.20;;
4508;SDS011;2267;48.816;9.230;2022-11-11T18:07:07;11.87;;;10.60;;
4508;SDS011;2267;48.816;9.230;2022-11-11T18:09:34;11.50;;;10.30;;
4508;SDS011;2267;48.816;9.230;2022-11-11T18:12:00;13.80;;;12.50;;
4508;SDS011;2267;48.816;9.230;2022-11-11T18:14:27;12.50;;;11.30;;
4508;SDS011;2267;48.816;9.230;2022-11-11T18:16:54;12.33;;;11.23;;
4508;SDS011;2267;48.816;9.230;2022-11-11T18:19:21;11.30;;;10.20;;
4508;SDS011;2267;48.816;9.230;2022-11-11T18:21:48;12.23;;;11.20;;
4508;SDS011;2267;48.816;9.230;2022-11-11T18:24:15;13.90;;;11.87;;
4508;SDS011;2267;48.816;9.230;2022-11-11T18:26:41;13.70;;;11.77;;
4508;SDS011;2267;48.816;9.230;2022-11-11T18:29:09;12.77;;;11.53;;
4508;SDS011;2267;48.816;9.230;2022-11-11T18:31:36;14.77;;;12.60;;
4508;SDS011;2267;48.816;9.230;2022-11-11T18:34:03;14.17;;;12.87;;
4508;SDS011;2267;48.816;9.230;2022-11-11T18:36:30;20.33;;;18.37;;
4508;SDS011;2267;48.816;9.230;2022-11-11T18:38:57;15.77;;;14.40;;
4508;SDS011;2267;48.816;9.230;2022-11-11T18:41:24;18.27;;;16.57;;
4508;SDS011;2267;48.816;9.230;2022-11-11T18:43:52;16.90;;;15.10;;
4508;SDS011;2267;48.816;9.230;2022-11-11T18:46:23;16.10;;;13.63;;
4508;SDS011;2267;48.816;9.230;2022-11-11T18:48:58;14.33;;;12.83;;
4508;SDS011;2267;48.816;9.230;2022-11-11T18:51:27;16.27;;;11.80;;
4508;SDS011;2267;48.816;9.230;2022-11-11T18:53:56;14.00;;;12.63;;